KCRS/CRS METAR and TAF weather

Enter ICAO airport designator
Station Type Date Time Source
KCRS METAR 2019/04/26 03:53 UTC NOAA

KCRS 260353Z AUTO 26003KT 10SM CLR 19/15 A2999 RMK AO2 SLP152 T01940150


Station Type Date Time Source
KCRS Decoded METAR 2019/04/26 03:53 UTC NOAA

CORSICANA AIRFIELD, TX, United States (KCRS) 32-01N 96-23W 133M
Apr 25, 2019 - 11:53 PM EDT / 2019.04.26 0353 UTC
Wind: from the W (260 degrees) at 3 MPH (3 KT):0
Visibility: 10 mile(s):0
Sky conditions: clear
Temperature: 66.9 F (19.4 C)
Dew Point: 59.0 F (15.0 C)
Relative Humidity: 75%
Pressure (altimeter): 29.99 in. Hg (1015 hPa)
ob: KCRS 260353Z AUTO 26003KT 10SM CLR 19/15 A2999 RMK AO2 SLP152 T01940150
cycle: 4

Station Type Date Time Source
KCRS TAF UTC NOAA

Error!

Example: see airport list